Time;durP1;ratioP1;P1;durP2;ratioP2;P2;SDS_P1;SDS_P2;PMS_P1;PMS_P2;Temp;Humidity;BMP_temperature;BMP_pressure;BME280_temperature;BME280_humidity;BME280_pressure;Samples;Min_cycle;Max_cycle;Signal;HPM_P1;HPM_P2
2023/04/03 00:01:57;;;;;;;2.65;1.42;;;2.40;99.90;;;;;;5024549;28;20052;-56
2023/04/03 00:04:22;;;;;;;4.97;1.60;;;2.40;99.90;;;;;;5023360;28;20045;-57
2023/04/03 00:06:48;;;;;;;3.22;1.50;;;2.40;99.90;;;;;;5021882;28;20045;-56
2023/04/03 00:09:14;;;;;;;7.20;1.60;;;2.40;99.90;;;;;;5028121;28;20057;-56
2023/04/03 00:11:40;;;;;;;2.03;1.10;;;2.40;99.90;;;;;;5009219;28;20515;-55
2023/04/03 00:14:05;;;;;;;3.45;1.40;;;2.40;99.90;;;;;;5010996;28;20132;-54
2023/04/03 00:16:31;;;;;;;4.15;1.30;;;2.40;99.90;;;;;;5028572;28;20050;-55
2023/04/03 00:18:57;;;;;;;2.55;1.48;;;2.40;99.90;;;;;;5027740;28;20053;-56
2023/04/03 00:21:23;;;;;;;3.92;1.10;;;2.40;99.90;;;;;;5009974;28;20045;-52
2023/04/03 00:23:48;;;;;;;3.67;1.30;;;2.40;99.90;;;;;;5028586;28;20061;-53
2023/04/03 00:26:14;;;;;;;3.65;1.30;;;2.40;99.90;;;;;;5024493;28;20038;-56
2023/04/03 00:28:40;;;;;;;1.60;1.10;;;2.40;99.90;;;;;;5027093;28;20045;-57
2023/04/03 00:31:06;;;;;;;3.13;1.30;;;2.40;99.90;;;;;;5011766;28;20072;-56
2023/04/03 00:33:31;;;;;;;2.88;1.50;;;2.30;99.90;;;;;;5023589;28;20480;-54
2023/04/03 00:35:57;;;;;;;2.47;1.38;;;2.40;99.90;;;;;;5024599;28;20495;-55
2023/04/03 00:38:23;;;;;;;4.63;1.20;;;2.30;99.90;;;;;;5005648;28;20051;-56
2023/04/03 00:40:49;;;;;;;2.05;1.20;;;2.30;99.90;;;;;;5024139;28;20419;-56
2023/04/03 00:43:22;;;;;;;1.95;1.05;;;2.30;99.90;;;;;;5025267;28;20741;-55
2023/04/03 00:45:58;;;;;;;3.25;1.30;;;2.20;99.90;;;;;;5025393;28;20543;-55
2023/04/03 00:48:43;;;;;;;2.65;1.20;;;2.20;99.90;;;;;;5022906;28;21310;-56
2023/04/03 00:51:14;;;;;;;3.08;1.10;;;2.20;99.90;;;;;;5022458;28;20476;-55
2023/04/03 00:53:46;;;;;;;1.45;1.05;;;2.20;99.90;;;;;;5022586;28;24681;-54
2023/04/03 00:56:17;;;;;;;3.05;1.23;;;2.10;99.90;;;;;;5013102;28;20167;-53
2023/04/03 00:58:49;;;;;;;4.55;1.40;;;2.00;99.90;;;;;;5025400;28;20041;-56
2023/04/03 01:01:18;;;;;;;;;;;2.00;99.90;;;;;;5022411;28;20046;-56
2023/04/03 01:03:44;;;;;;;2.63;1.40;;;2.00;99.90;;;;;;5004172;28;19924;-54
2023/04/03 01:06:10;;;;;;;5.78;1.58;;;1.90;99.90;;;;;;5022616;28;20045;-57
2023/04/03 01:08:36;;;;;;;6.88;1.60;;;1.90;99.90;;;;;;5020707;28;20056;-55
2023/04/03 01:11:01;;;;;;;5.18;1.63;;;1.90;99.90;;;;;;5026042;28;20049;-56
2023/04/03 01:13:30;;;;;;;5.63;1.80;;;1.90;99.90;;;;;;5025605;28;20054;-56
2023/04/03 01:15:57;;;;;;;4.45;1.38;;;1.90;99.90;;;;;;5024961;28;20673;-53
2023/04/03 01:18:26;;;;;;;3.47;1.42;;;1.80;99.90;;;;;;5023751;28;20045;-54
2023/04/03 01:20:55;;;;;;;4.22;1.50;;;1.80;99.90;;;;;;5028061;28;20033;-55
2023/04/03 01:23:33;;;;;;;5.00;1.40;;;1.80;99.90;;;;;;4991971;28;20049;-55
2023/04/03 01:25:59;;;;;;;4.85;1.75;;;1.80;99.90;;;;;;5025805;28;20053;-54
2023/04/03 01:28:31;;;;;;;2.33;1.52;;;1.80;99.90;;;;;;5025918;28;20068;-54
2023/04/03 01:31:10;;;;;;;7.57;1.73;;;1.80;99.90;;;;;;5020462;28;20060;-53
2023/04/03 01:33:37;;;;;;;3.88;1.38;;;1.80;99.90;;;;;;5018191;28;20041;-55
2023/04/03 01:36:04;;;;;;;4.40;1.77;;;1.80;99.90;;;;;;5011289;28;20642;-53
2023/04/03 01:38:30;;;;;;;10.70;2.03;;;1.80;99.90;;;;;;5022231;28;22034;-55
2023/04/03 01:40:56;;;;;;;6.57;1.80;;;1.80;99.90;;;;;;5005427;28;20049;-52
2023/04/03 01:43:22;;;;;;;6.93;1.85;;;1.70;99.90;;;;;;5024648;28;20123;-56
2023/04/03 01:45:49;;;;;;;3.20;1.50;;;1.70;99.90;;;;;;5020291;28;20102;-54
2023/04/03 01:48:15;;;;;;;5.97;1.65;;;1.70;99.90;;;;;;5028382;28;20051;-55
2023/04/03 01:50:41;;;;;;;4.80;1.80;;;1.70;99.90;;;;;;5024114;28;21100;-55
2023/04/03 01:53:08;;;;;;;4.45;1.40;;;1.70;99.90;;;;;;5022335;28;20101;-56
2023/04/03 01:55:33;;;;;;;6.03;1.90;;;1.70;99.90;;;;;;5020905;28;20052;-57
2023/04/03 01:57:59;;;;;;;9.52;1.52;;;1.70;99.90;;;;;;5003168;28;20413;-57
2023/04/03 02:00:26;;;;;;;6.53;1.88;;;1.70;99.90;;;;;;5018486;28;20132;-55
2023/04/03 02:02:52;;;;;;;9.75;1.70;;;1.70;99.90;;;;;;5007098;28;20041;-52
2023/04/03 02:05:18;;;;;;;3.13;1.40;;;1.70;99.90;;;;;;5024433;28;20088;-54
2023/04/03 02:07:44;;;;;;;6.47;1.80;;;1.60;99.90;;;;;;5026500;28;20120;-54
2023/04/03 02:10:10;;;;;;;6.43;1.52;;;1.60;99.90;;;;;;5004150;28;20140;-55
2023/04/03 02:12:36;;;;;;;6.57;1.92;;;1.60;99.90;;;;;;5023516;28;20041;-55
2023/04/03 02:15:02;;;;;;;7.80;2.03;;;1.60;99.90;;;;;;5002175;28;20037;-55
2023/04/03 02:17:27;;;;;;;10.73;1.88;;;1.60;99.90;;;;;;5022270;28;20048;-53
2023/04/03 02:19:53;;;;;;;7.53;1.83;;;1.60;99.90;;;;;;5025977;28;20045;-55
2023/04/03 02:22:20;;;;;;;5.50;1.80;;;1.60;99.90;;;;;;5024206;28;20080;-55
2023/04/03 02:24:45;;;;;;;12.00;2.05;;;1.50;99.90;;;;;;5015251;28;20045;-55
2023/04/03 02:27:11;;;;;;;5.10;2.10;;;1.50;99.90;;;;;;4981822;28;20139;-56
2023/04/03 02:29:37;;;;;;;6.68;1.92;;;1.50;99.90;;;;;;5023398;28;20057;-55
2023/04/03 02:32:03;;;;;;;6.75;2.00;;;1.50;99.90;;;;;;5007012;28;20056;-54
2023/04/03 02:34:29;;;;;;;8.38;2.00;;;1.50;99.90;;;;;;5004242;28;20115;-55
2023/04/03 02:36:54;;;;;;;5.18;1.90;;;1.50;99.90;;;;;;5002886;28;20399;-55
2023/04/03 02:39:20;;;;;;;4.18;1.80;;;1.50;99.90;;;;;;5020809;28;20145;-55
2023/04/03 02:41:46;;;;;;;5.55;1.88;;;1.50;99.90;;;;;;5021164;28;20037;-52
2023/04/03 02:44:12;;;;;;;5.07;1.65;;;1.40;99.90;;;;;;5017386;28;20498;-55
2023/04/03 02:46:38;;;;;;;5.68;1.85;;;1.40;99.90;;;;;;5026822;28;20110;-52
2023/04/03 02:49:04;;;;;;;6.90;1.73;;;1.50;99.90;;;;;;5003779;28;20049;-54
2023/04/03 02:51:30;;;;;;;9.27;2.40;;;1.40;99.90;;;;;;5020051;28;20507;-54
2023/04/03 02:53:56;;;;;;;7.00;2.13;;;1.30;99.90;;;;;;5005158;28;20045;-55
2023/04/03 02:56:22;;;;;;;6.38;1.98;;;1.30;99.90;;;;;;5017588;28;20271;-52
2023/04/03 02:58:48;;;;;;;4.90;1.70;;;1.30;99.90;;;;;;5026008;28;20045;-52
2023/04/03 03:01:14;;;;;;;4.18;1.80;;;1.30;99.90;;;;;;4999600;28;20086;-55
2023/04/03 03:03:39;;;;;;;6.93;2.03;;;1.30;99.90;;;;;;5017845;28;20131;-52
2023/04/03 03:06:11;;;;;;;4.25;1.85;;;1.20;99.90;;;;;;5023582;28;20045;-53
2023/04/03 03:08:37;;;;;;;4.38;1.73;;;1.20;99.90;;;;;;5021467;28;20081;-56
2023/04/03 03:11:04;;;;;;;6.60;1.90;;;1.20;99.90;;;;;;5025678;28;20047;-55
2023/04/03 03:13:31;;;;;;;6.72;2.10;;;1.20;99.90;;;;;;5021295;28;20438;-52
2023/04/03 03:15:56;;;;;;;5.80;2.00;;;1.20;99.90;;;;;;5016106;28;20081;-55
2023/04/03 03:18:22;;;;;;;6.72;1.90;;;1.10;99.90;;;;;;5024437;28;20083;-53
2023/04/03 03:20:56;;;;;;;4.43;1.70;;;1.10;99.90;;;;;;5022280;28;20135;-56
2023/04/03 03:23:24;;;;;;;6.28;2.00;;;1.10;99.90;;;;;;5020376;28;20042;-55
2023/04/03 03:25:56;;;;;;;7.13;2.40;;;1.10;99.90;;;;;;5020418;28;20067;-53
2023/04/03 03:28:21;;;;;;;4.70;2.20;;;1.00;99.90;;;;;;5024795;28;20120;-53
2023/04/03 03:30:47;;;;;;;5.53;2.00;;;1.00;99.90;;;;;;5021522;28;20140;-53
2023/04/03 03:33:13;;;;;;;5.13;2.25;;;0.90;99.90;;;;;;5021552;28;20092;-55
2023/04/03 03:35:40;;;;;;;6.47;2.20;;;0.90;99.90;;;;;;5006207;28;20057;-56
2023/04/03 03:38:05;;;;;;;6.05;2.10;;;0.90;99.90;;;;;;5025446;28;20044;-56
2023/04/03 03:40:31;;;;;;;5.07;1.95;;;0.80;99.90;;;;;;5028909;28;20448;-53
2023/04/03 03:42:57;;;;;;;6.18;1.92;;;0.80;99.90;;;;;;5030719;28;20046;-56
2023/04/03 03:45:23;;;;;;;5.80;2.30;;;0.70;99.90;;;;;;5006912;28;20034;-56
2023/04/03 03:47:48;;;;;;;4.55;2.08;;;0.70;99.90;;;;;;5023262;28;20060;-56
2023/04/03 03:50:15;;;;;;;7.30;2.47;;;0.60;99.90;;;;;;5024207;28;20045;-56
2023/04/03 03:52:40;;;;;;;6.38;2.38;;;0.60;99.90;;;;;;5029994;28;20041;-56
2023/04/03 03:55:07;;;;;;;9.07;2.17;;;0.60;99.90;;;;;;5007782;28;20068;-56
2023/04/03 03:57:33;;;;;;;5.55;2.28;;;0.50;99.90;;;;;;5004932;28;20048;-56
2023/04/03 03:59:59;;;;;;;7.20;2.15;;;0.50;99.90;;;;;;5027648;28;20050;-52
2023/04/03 04:02:25;;;;;;;5.63;2.15;;;0.50;99.90;;;;;;5026145;28;20038;-56
2023/04/03 04:04:51;;;;;;;6.10;2.38;;;0.40;99.90;;;;;;5024307;28;20045;-52
2023/04/03 04:07:16;;;;;;;6.22;2.20;;;0.40;99.90;;;;;;5021797;28;20049;-53
2023/04/03 04:09:42;;;;;;;5.47;2.33;;;0.40;99.90;;;;;;5017616;28;20048;-56
2023/04/03 04:12:08;;;;;;;7.10;3.25;;;0.40;99.90;;;;;;5023087;28;20041;-54
2023/04/03 04:14:34;;;;;;;6.15;2.20;;;0.30;99.90;;;;;;5021196;28;20079;-54
2023/04/03 04:17:02;;;;;;;8.80;2.25;;;0.30;99.90;;;;;;5023996;28;20049;-56
2023/04/03 04:19:28;;;;;;;7.32;2.50;;;0.30;99.90;;;;;;5023103;28;20150;-54
2023/04/03 04:21:54;;;;;;;8.48;2.05;;;0.30;99.90;;;;;;5022003;28;20053;-54
2023/04/03 04:24:20;;;;;;;5.88;2.63;;;0.20;99.90;;;;;;5021306;28;20053;-56
2023/04/03 04:26:45;;;;;;;7.35;2.22;;;0.20;99.90;;;;;;5021442;28;20033;-56
2023/04/03 04:29:11;;;;;;;4.90;2.20;;;0.20;99.90;;;;;;5021593;28;20150;-54
2023/04/03 04:31:37;;;;;;;6.43;2.55;;;0.20;99.90;;;;;;5022664;28;20072;-54
2023/04/03 04:34:03;;;;;;;6.13;2.47;;;0.20;99.90;;;;;;5020122;28;22399;-55
2023/04/03 04:36:29;;;;;;;8.13;2.50;;;0.20;99.90;;;;;;5022878;28;20522;-55
2023/04/03 04:38:55;;;;;;;5.28;2.25;;;0.20;99.90;;;;;;5011747;28;20045;-56
2023/04/03 04:41:22;;;;;;;7.05;2.55;;;0.20;99.90;;;;;;5032343;28;20065;-55
2023/04/03 04:43:48;;;;;;;6.35;2.50;;;0.20;99.90;;;;;;5029195;28;20274;-55
2023/04/03 04:46:15;;;;;;;6.50;2.60;;;0.20;99.90;;;;;;5025976;28;21177;-57
2023/04/03 04:48:41;;;;;;;5.82;2.47;;;0.20;99.90;;;;;;5027773;28;20033;-52
2023/04/03 04:51:07;;;;;;;8.38;3.10;;;0.20;99.90;;;;;;5028546;28;20045;-53
2023/04/03 04:53:33;;;;;;;7.75;2.80;;;0.20;99.90;;;;;;5027357;28;20041;-52
2023/04/03 04:55:59;;;;;;;7.95;2.70;;;0.20;99.90;;;;;;5026084;28;20037;-53
2023/04/03 04:58:25;;;;;;;5.97;2.47;;;0.20;99.90;;;;;;5023884;28;20099;-57
2023/04/03 05:01:05;;;;;;;7.20;2.83;;;0.20;99.90;;;;;;5026742;28;20053;-57
2023/04/03 05:03:31;;;;;;;8.18;3.00;;;0.10;99.90;;;;;;5029177;28;20037;-57
2023/04/03 05:05:57;;;;;;;6.10;2.70;;;0.10;99.90;;;;;;5025999;28;20040;-57
2023/04/03 05:08:23;;;;;;;9.15;3.50;;;0.10;99.90;;;;;;5022179;28;20046;-57
2023/04/03 05:10:49;;;;;;;9.95;3.38;;;0.10;99.90;;;;;;5025660;28;20045;-56
2023/04/03 05:13:15;;;;;;;7.35;3.22;;;0.10;99.90;;;;;;5007138;28;20574;-55
2023/04/03 05:15:41;;;;;;;12.23;3.67;;;0.10;99.90;;;;;;5026341;28;20077;-55
2023/04/03 05:18:07;;;;;;;8.93;3.17;;;0.00;99.90;;;;;;5025344;28;20044;-55
2023/04/03 05:20:34;;;;;;;11.05;3.47;;;0.00;99.90;;;;;;5020444;28;20045;-55
2023/04/03 05:23:00;;;;;;;10.73;3.85;;;0.00;99.90;;;;;;5010084;28;20488;-56
2023/04/03 05:25:26;;;;;;;10.05;3.20;;;0.00;99.90;;;;;;5017527;28;20526;-57
2023/04/03 05:27:52;;;;;;;9.57;3.40;;;0.00;99.90;;;;;;5023289;28;20053;-56
2023/04/03 05:30:18;;;;;;;8.38;3.38;;;0.00;99.90;;;;;;5014359;28;20047;-55
2023/04/03 05:32:44;;;;;;;12.85;3.22;;;0.00;99.90;;;;;;5014456;28;20144;-56
2023/04/03 05:35:10;;;;;;;7.60;3.40;;;0.00;99.90;;;;;;4996495;28;20045;-55
2023/04/03 05:37:36;;;;;;;6.70;3.00;;;0.00;99.90;;;;;;5021239;28;20504;-56
2023/04/03 05:40:03;;;;;;;8.68;2.90;;;0.00;99.90;;;;;;5022392;28;20095;-57
2023/04/03 05:42:29;;;;;;;9.30;3.10;;;0.00;99.90;;;;;;5005559;28;20384;-57
2023/04/03 05:44:55;;;;;;;8.23;3.17;;;0.10;99.90;;;;;;5019668;28;20046;-56
2023/04/03 05:47:21;;;;;;;11.13;3.60;;;0.10;99.90;;;;;;5005821;28;20084;-56
2023/04/03 05:49:47;;;;;;;10.27;3.38;;;0.10;99.90;;;;;;5007879;28;20049;-56
2023/04/03 05:52:26;;;;;;;12.02;3.25;;;0.10;99.90;;;;;;5021174;28;20054;-56
2023/04/03 05:54:52;;;;;;;6.82;2.92;;;0.10;99.90;;;;;;5016555;28;20073;-57
2023/04/03 05:57:18;;;;;;;10.13;3.58;;;0.20;99.90;;;;;;5022351;28;20476;-56
2023/04/03 05:59:46;;;;;;;10.95;4.20;;;0.20;99.90;;;;;;5008421;28;20056;-54
2023/04/03 06:02:17;;;;;;;7.10;3.35;;;0.20;99.90;;;;;;5020516;28;20049;-56
2023/04/03 06:04:43;;;;;;;8.63;4.13;;;0.20;99.90;;;;;;5019915;28;20037;-53
2023/04/03 06:07:22;;;;;;;10.95;3.92;;;0.20;99.90;;;;;;5013156;28;20061;-56
2023/04/03 06:09:51;;;;;;;7.93;3.20;;;0.30;99.90;;;;;;5018398;28;20128;-54
2023/04/03 06:12:18;;;;;;;12.88;3.75;;;0.30;99.90;;;;;;5016331;28;20132;-57
2023/04/03 06:14:44;;;;;;;11.40;3.50;;;0.30;99.90;;;;;;5019009;28;20045;-56
2023/04/03 06:17:10;;;;;;;10.13;3.42;;;0.40;99.90;;;;;;5010919;28;20091;-54
2023/04/03 06:19:36;;;;;;;7.85;3.40;;;0.40;99.90;;;;;;5024913;28;20045;-57
2023/04/03 06:22:02;;;;;;;9.40;3.45;;;0.50;99.90;;;;;;5025330;28;20041;-57
2023/04/03 06:24:29;;;;;;;10.35;3.65;;;0.50;99.90;;;;;;5028394;28;20395;-56
2023/04/03 06:26:54;;;;;;;6.68;3.17;;;0.50;99.90;;;;;;5024707;28;20049;-56
2023/04/03 06:29:21;;;;;;;10.55;3.30;;;0.50;99.90;;;;;;5030932;28;20241;-56
2023/04/03 06:31:47;;;;;;;9.50;3.53;;;0.60;99.90;;;;;;5008315;28;20459;-54
2023/04/03 06:34:13;;;;;;;7.78;3.15;;;0.60;99.90;;;;;;5023459;28;20120;-52
2023/04/03 06:36:39;;;;;;;9.45;2.78;;;0.70;99.90;;;;;;5027786;28;20128;-53
2023/04/03 06:39:06;;;;;;;8.48;3.60;;;0.70;99.90;;;;;;5021139;28;20469;-53
2023/04/03 06:41:33;;;;;;;8.27;3.10;;;0.70;99.90;;;;;;5020246;28;20087;-56
2023/04/03 06:43:58;;;;;;;10.90;3.17;;;0.80;99.90;;;;;;5022758;28;20500;-57
2023/04/03 06:46:26;;;;;;;12.32;3.50;;;0.80;99.90;;;;;;5004175;28;20041;-57
2023/04/03 06:48:52;;;;;;;14.35;3.75;;;0.90;99.90;;;;;;5013953;28;20534;-54
2023/04/03 06:51:21;;;;;;;11.77;3.72;;;0.90;99.90;;;;;;5019292;28;20041;-56
2023/04/03 06:53:51;;;;;;;8.65;3.50;;;1.00;99.90;;;;;;5004666;28;20081;-56
2023/04/03 06:56:17;;;;;;;9.57;3.50;;;1.10;99.90;;;;;;5027449;28;20044;-54
2023/04/03 06:58:44;;;;;;;7.55;3.00;;;1.10;99.90;;;;;;5004476;28;20504;-54
2023/04/03 07:01:11;;;;;;;8.40;3.25;;;1.20;99.90;;;;;;5005072;28;20418;-56
2023/04/03 07:03:38;;;;;;;8.07;3.55;;;1.20;99.90;;;;;;5017456;28;20087;-56
2023/04/03 07:06:09;;;;;;;6.88;3.08;;;1.40;99.90;;;;;;5021133;28;20467;-57
2023/04/03 07:08:35;;;;;;;9.20;2.95;;;1.40;99.90;;;;;;5022999;28;20049;-56
2023/04/03 07:11:01;;;;;;;6.45;3.17;;;1.40;99.90;;;;;;5029195;28;20041;-57
2023/04/03 07:13:27;;;;;;;6.93;3.20;;;1.50;99.90;;;;;;5022799;28;20054;-57
2023/04/03 07:15:53;;;;;;;11.07;3.65;;;1.50;99.90;;;;;;5023277;28;20045;-56
2023/04/03 07:18:19;;;;;;;8.05;3.00;;;1.60;99.90;;;;;;5022571;28;20121;-55
2023/04/03 07:20:45;;;;;;;8.93;3.17;;;1.60;99.90;;;;;;5027799;28;20117;-52
2023/04/03 07:23:11;;;;;;;7.90;2.65;;;1.70;99.90;;;;;;5029031;28;20113;-53
2023/04/03 07:25:41;;;;;;;12.75;3.70;;;1.80;99.90;;;;;;5017068;28;20099;-55
2023/04/03 07:28:08;;;;;;;7.25;2.85;;;1.90;99.90;;;;;;4983367;28;20496;-57
2023/04/03 07:30:33;;;;;;;7.90;2.92;;;2.00;99.90;;;;;;5018277;28;20053;-53
2023/04/03 07:32:59;;;;;;;6.32;2.65;;;2.00;99.90;;;;;;5023086;28;20110;-54
2023/04/03 07:35:25;;;;;;;7.57;3.40;;;2.20;99.90;;;;;;5021213;28;20061;-56
2023/04/03 07:37:51;;;;;;;10.82;2.70;;;2.20;99.90;;;;;;5027195;28;20049;-54
2023/04/03 07:40:17;;;;;;;10.65;2.50;;;2.30;99.90;;;;;;5021119;28;20045;-57
2023/04/03 07:42:42;;;;;;;5.78;2.60;;;2.40;99.90;;;;;;5020591;28;20081;-57
2023/04/03 07:45:09;;;;;;;6.82;2.80;;;2.50;99.90;;;;;;5021386;28;21339;-56
2023/04/03 07:47:34;;;;;;;6.57;2.47;;;2.60;99.90;;;;;;5025654;28;20041;-57
2023/04/03 07:50:00;;;;;;;7.38;2.70;;;2.70;99.90;;;;;;5021194;28;20064;-57
2023/04/03 07:52:26;;;;;;;9.15;2.72;;;2.80;99.90;;;;;;5016153;28;20609;-56
2023/04/03 07:54:52;;;;;;;5.32;2.35;;;3.00;99.90;;;;;;5019512;28;20064;-56
2023/04/03 07:57:17;;;;;;;6.00;2.30;;;3.10;99.90;;;;;;5008729;28;20115;-56
2023/04/03 07:59:43;;;;;;;6.00;2.33;;;3.20;99.90;;;;;;5020235;28;20067;-55
2023/04/03 08:02:10;;;;;;;6.55;2.60;;;3.30;99.90;;;;;;5018149;28;20103;-57
2023/04/03 08:04:36;;;;;;;9.00;2.78;;;3.40;99.90;;;;;;4996234;28;20049;-57
2023/04/03 08:07:02;;;;;;;8.68;2.80;;;3.50;99.90;;;;;;4981421;28;20046;-56
2023/04/03 08:09:27;;;;;;;8.20;2.40;;;3.60;99.90;;;;;;5005811;28;20107;-56
2023/04/03 08:11:53;;;;;;;6.88;2.40;;;3.70;99.90;;;;;;5023827;28;20049;-57
2023/04/03 08:14:20;;;;;;;6.97;2.65;;;3.90;99.90;;;;;;5004456;28;20052;-56
2023/04/03 08:16:47;;;;;;;6.53;2.45;;;4.00;99.90;;;;;;5026168;28;20411;-56
2023/04/03 08:19:16;;;;;;;5.07;2.45;;;4.10;99.90;;;;;;5023515;28;20049;-56
2023/04/03 08:21:42;;;;;;;4.90;2.53;;;4.20;99.90;;;;;;5026156;28;20572;-55
2023/04/03 08:24:08;;;;;;;7.20;2.53;;;4.30;99.90;;;;;;4979258;28;20053;-55
2023/04/03 08:26:35;;;;;;;10.82;2.70;;;4.40;99.90;;;;;;5017919;28;20048;-53
2023/04/03 08:29:01;;;;;;;7.68;2.47;;;4.50;99.90;;;;;;5019885;28;20053;-53
2023/04/03 08:31:27;;;;;;;7.00;2.30;;;4.60;99.90;;;;;;5017941;28;20065;-56
2023/04/03 08:33:53;;;;;;;7.15;2.20;;;4.60;99.90;;;;;;5003455;28;20044;-55
2023/04/03 08:36:25;;;;;;;5.00;2.65;;;4.70;99.90;;;;;;5006494;28;20415;-54
2023/04/03 08:38:51;;;;;;;7.05;2.90;;;4.90;99.90;;;;;;5028570;28;20061;-53
2023/04/03 08:41:31;;;;;;;12.55;2.85;;;4.90;99.90;;;;;;5028024;28;20041;-56
2023/04/03 08:44:39;;;;;;;7.90;2.42;;;5.00;99.90;;;;;;4997701;28;20045;-53
2023/04/03 08:47:26;;;;;;;6.10;2.40;;;5.10;99.90;;;;;;5022599;28;20046;-55
2023/04/03 08:50:10;;;;;;;7.22;2.47;;;5.30;99.90;;;;;;5028127;28;20057;-55
2023/04/03 08:52:45;;;;;;;5.47;2.35;;;5.40;99.90;;;;;;5010913;28;20072;-54
2023/04/03 08:55:39;;;;;;;7.07;2.38;;;5.50;99.90;;;;;;5021704;28;20575;-53
2023/04/03 09:00:18;;;;;;;6.53;2.38;;;5.60;99.90;;;;;;5039758;27;1315829;-54
2023/04/03 09:02:46;;;;;;;6.22;2.28;;;5.80;99.90;;;;;;4953783;28;20049;-55
2023/04/03 09:05:18;;;;;;;5.45;2.30;;;5.90;99.90;;;;;;5020214;28;20102;-56
2023/04/03 09:07:49;;;;;;;7.50;2.55;;;6.10;99.90;;;;;;4994967;28;20049;-56
2023/04/03 09:10:18;;;;;;;4.00;1.60;;;6.20;99.90;;;;;;5026072;28;20472;-53
2023/04/03 09:12:59;;;;;;;3.95;1.77;;;6.30;99.90;;;;;;5022589;28;20033;-56
2023/04/03 09:15:26;;;;;;;2.33;1.45;;;6.40;99.90;;;;;;5023903;28;20142;-54
2023/04/03 09:18:15;;;;;;;2.67;1.15;;;6.60;99.90;;;;;;4992531;28;20049;-57
2023/04/03 09:21:02;;;;;;;4.32;1.75;;;6.70;99.90;;;;;;5015201;28;20041;-56
2023/04/03 09:23:41;;;;;;;2.38;1.40;;;6.80;99.80;;;;;;5024422;28;20033;-56
2023/04/03 09:26:34;;;;;;;3.47;1.58;;;7.00;99.50;;;;;;5024654;28;20581;-53
2023/04/03 09:29:05;;;;;;;3.05;1.35;;;7.20;98.20;;;;;;5015429;28;20061;-56
2023/04/03 09:31:39;;;;;;;3.72;1.35;;;7.20;97.20;;;;;;5022236;28;20495;-54
2023/04/03 09:34:26;;;;;;;4.30;1.50;;;7.30;95.60;;;;;;5027420;28;20091;-56
2023/04/03 09:36:55;;;;;;;3.03;1.40;;;7.40;96.00;;;;;;5024148;28;20044;-57
2023/04/03 09:39:28;;;;;;;3.67;1.77;;;7.50;95.60;;;;;;5009479;28;20049;-57
2023/04/03 09:42:15;;;;;;;3.13;1.35;;;7.60;93.50;;;;;;5005999;28;20041;-57
2023/04/03 09:44:41;;;;;;;3.92;1.70;;;7.60;92.10;;;;;;5022253;28;20041;-57
2023/04/03 09:47:32;;;;;;;3.13;1.38;;;7.70;93.00;;;;;;5019848;28;20044;-56
2023/04/03 09:50:14;;;;;;;2.90;1.30;;;7.80;93.00;;;;;;5019733;28;20060;-57
2023/04/03 09:52:45;;;;;;;3.42;1.35;;;7.90;91.30;;;;;;5021355;28;20049;-55
2023/04/03 09:55:27;;;;;;;5.90;1.42;;;8.00;91.00;;;;;;5002219;28;20395;-53
2023/04/03 09:58:01;;;;;;;2.58;1.40;;;8.10;89.30;;;;;;5017315;28;20072;-56
2023/04/03 10:00:35;;;;;;;3.17;1.27;;;8.30;89.20;;;;;;5000692;28;20057;-57
2023/04/03 10:03:02;;;;;;;4.68;1.48;;;8.40;90.50;;;;;;4994962;28;20050;-57
2023/04/03 10:05:35;;;;;;;2.20;1.00;;;8.60;90.20;;;;;;5005218;28;20074;-55
2023/04/03 10:08:12;;;;;;;;;;;8.70;88.50;;;;;;4990790;28;20049;-56
2023/04/03 10:10:40;;;;;;;3.17;1.25;;;8.80;85.00;;;;;;4994956;28;19921;-55
2023/04/03 10:13:18;;;;;;;4.15;1.30;;;8.90;89.00;;;;;;4990733;28;20056;-55
2023/04/03 10:16:12;;;;;;;2.63;1.45;;;9.00;86.60;;;;;;4980771;28;20046;-57
2023/04/03 10:18:59;;;;;;;3.70;1.52;;;9.20;84.80;;;;;;4979983;28;20058;-57
2023/04/03 10:21:50;;;;;;;5.55;1.20;;;9.20;83.30;;;;;;4992937;28;20408;-57
2023/04/03 10:24:50;;;;;;;3.20;1.38;;;9.30;83.90;;;;;;4995202;28;20046;-56
2023/04/03 10:27:20;;;;;;;4.45;1.30;;;9.30;82.40;;;;;;4992579;28;20057;-56
2023/04/03 10:30:06;;;;;;;4.47;1.35;;;9.50;82.40;;;;;;4990088;28;20053;-58
2023/04/03 10:32:50;;;;;;;4.78;1.63;;;9.60;81.00;;;;;;4964458;28;20058;-58
2023/04/03 10:35:28;;;;;;;2.78;1.40;;;9.80;80.90;;;;;;4987155;28;20128;-57
2023/04/03 10:38:02;;;;;;;3.40;1.50;;;9.90;78.70;;;;;;4987406;28;20046;-57
2023/04/03 10:40:51;;;;;;;4.22;1.52;;;10.00;79.10;;;;;;4986195;28;20042;-58
2023/04/03 10:43:41;;;;;;;1.67;0.88;;;10.10;77.80;;;;;;4988893;28;20103;-54
2023/04/03 10:46:07;;;;;;;5.65;1.27;;;10.20;76.00;;;;;;4985290;28;20038;-56
2023/04/03 10:49:20;;;;;;;1.92;1.00;;;10.20;73.20;;;;;;4991155;28;20095;-55
2023/04/03 10:52:19;;;;;;;3.85;1.30;;;10.20;73.00;;;;;;4967690;28;20129;-56
2023/04/03 10:55:20;;;;;;;3.03;1.27;;;10.30;74.70;;;;;;4960368;28;20104;-57
2023/04/03 10:57:47;;;;;;;2.13;1.20;;;10.50;70.60;;;;;;4953920;28;20050;-57
2023/04/03 11:00:19;;;;;;;3.80;1.10;;;10.50;71.90;;;;;;4982271;28;20061;-58
2023/04/03 11:03:05;;;;;;;1.90;1.00;;;10.60;71.00;;;;;;4989277;28;20161;-57
2023/04/03 11:05:41;;;;;;;3.70;0.98;;;10.70;69.90;;;;;;4990227;28;20128;-57
2023/04/03 11:08:32;;;;;;;2.15;1.10;;;10.80;68.80;;;;;;4986640;28;20073;-57
2023/04/03 11:11:03;;;;;;;4.10;1.25;;;10.80;66.80;;;;;;4985642;28;20132;-58
2023/04/03 11:13:43;;;;;;;1.52;0.98;;;10.90;67.10;;;;;;4985908;28;20145;-56
2023/04/03 11:16:18;;;;;;;2.40;1.08;;;11.00;67.60;;;;;;4989162;28;20038;-58
2023/04/03 11:19:02;;;;;;;4.93;1.25;;;11.10;66.50;;;;;;4986258;28;20057;-57
2023/04/03 11:21:51;;;;;;;5.80;1.27;;;11.20;65.80;;;;;;4989818;28;20501;-56
2023/04/03 11:24:24;;;;;;;2.15;1.40;;;11.20;64.10;;;;;;4983518;28;20057;-57
2023/04/03 11:26:52;;;;;;;3.33;1.10;;;11.20;63.10;;;;;;4989742;28;20061;-58
2023/04/03 11:29:31;;;;;;;4.40;1.55;;;11.30;62.60;;;;;;4986802;28;20070;-58
2023/04/03 11:32:09;;;;;;;3.05;1.25;;;11.30;62.90;;;;;;4985542;28;20050;-58
2023/04/03 11:34:40;;;;;;;3.13;1.00;;;11.30;62.80;;;;;;4993490;28;20038;-56
2023/04/03 11:37:29;;;;;;;2.13;1.05;;;11.30;63.00;;;;;;4990570;28;20096;-57
2023/04/03 11:40:09;;;;;;;1.83;0.90;;;11.50;63.00;;;;;;4986785;28;20153;-57
2023/04/03 11:42:38;;;;;;;1.52;1.05;;;11.60;62.60;;;;;;4990576;28;20084;-58
2023/04/03 11:45:26;;;;;;;2.92;1.00;;;11.80;63.40;;;;;;4987601;28;20534;-57
2023/04/03 11:47:58;;;;;;;2.42;1.20;;;12.10;62.90;;;;;;4988596;28;20057;-57
2023/04/03 11:50:42;;;;;;;3.50;1.25;;;12.30;62.90;;;;;;4988186;28;20548;-57
2023/04/03 11:53:08;;;;;;;1.90;1.10;;;12.40;62.30;;;;;;4989421;28;20045;-58
2023/04/03 11:55:35;;;;;;;3.80;1.15;;;12.50;61.60;;;;;;4986441;28;20405;-57
2023/04/03 11:58:01;;;;;;;1.80;1.00;;;12.60;61.00;;;;;;4987749;28;20049;-58
2023/04/03 12:01:02;;;;;;;2.90;1.20;;;12.70;60.40;;;;;;5012773;28;20465;-57
2023/04/03 12:03:31;;;;;;;3.33;1.35;;;12.70;60.60;;;;;;5006497;28;20049;-58
2023/04/03 12:06:14;;;;;;;6.38;1.45;;;12.70;60.60;;;;;;4995302;28;20050;-57
2023/04/03 12:08:40;;;;;;;1.30;0.80;;;12.70;58.30;;;;;;5006621;28;20037;-57
2023/04/03 12:13:53;;;;;;;1.80;1.30;;;13.00;60.20;;;;;;5000958;28;20045;-59
2023/04/03 12:16:28;;;;;;;3.03;1.15;;;13.20;60.70;;;;;;4976736;28;20174;-58
2023/04/03 12:19:04;;;;;;;2.10;1.40;;;13.30;60.30;;;;;;5002926;28;20145;-57
2023/04/03 12:21:30;;;;;;;3.20;1.10;;;13.60;60.00;;;;;;5004235;28;20145;-59
2023/04/03 12:24:25;;;;;;;1.83;1.15;;;13.60;59.60;;;;;;5006805;28;20049;-58
2023/04/03 12:26:56;;;;;;;2.30;1.17;;;13.80;59.30;;;;;;4981278;28;20343;-57
2023/04/03 12:29:32;;;;;;;2.50;1.23;;;13.80;58.50;;;;;;5006066;28;20383;-58
2023/04/03 12:32:07;;;;;;;3.25;1.20;;;13.70;56.50;;;;;;5005219;28;20057;-57
2023/04/03 12:34:45;;;;;;;3.50;1.30;;;13.60;56.50;;;;;;5007076;28;20064;-58
2023/04/03 12:37:48;;;;;;;2.67;1.00;;;13.60;56.00;;;;;;5009391;28;20046;-58
2023/04/03 12:40:42;;;;;;;1.85;1.05;;;13.70;56.00;;;;;;5006939;28;21037;-58
2023/04/03 12:43:27;;;;;;;5.05;1.20;;;13.70;55.80;;;;;;5002613;28;20049;-59
2023/04/03 12:46:08;;;;;;;2.47;1.10;;;13.80;55.50;;;;;;4987179;28;20049;-59
2023/04/03 12:48:55;;;;;;;4.80;1.20;;;13.80;53.70;;;;;;5005996;28;21102;-58
2023/04/03 12:51:32;;;;;;;3.08;1.00;;;13.50;53.20;;;;;;5003504;28;20060;-57
2023/04/03 12:54:03;;;;;;;1.40;0.80;;;13.50;53.00;;;;;;4961301;28;20054;-58
2023/04/03 12:56:32;;;;;;;3.75;1.40;;;13.50;53.70;;;;;;4992425;28;20050;-59
2023/04/03 12:59:26;;;;;;;1.95;1.17;;;13.80;55.10;;;;;;4996264;28;20062;-59
2023/04/03 13:01:59;;;;;;;2.53;1.13;;;14.00;54.70;;;;;;4999432;28;20049;-57
2023/04/03 13:04:27;;;;;;;2.40;1.15;;;14.20;54.70;;;;;;5001691;28;20132;-58
2023/04/03 13:06:54;;;;;;;2.35;1.10;;;14.30;53.50;;;;;;4999675;28;20473;-59
2023/04/03 13:09:28;;;;;;;1.88;1.13;;;14.20;52.70;;;;;;5002396;28;20120;-59
2023/04/03 13:12:00;;;;;;;1.92;1.00;;;14.20;52.30;;;;;;4988955;28;20069;-58
2023/04/03 13:14:28;;;;;;;1.88;1.20;;;14.20;53.20;;;;;;4998348;28;20115;-59
2023/04/03 13:17:00;;;;;;;1.88;1.00;;;14.30;53.00;;;;;;4997954;28;20061;-58
2023/04/03 13:19:27;;;;;;;4.72;1.05;;;14.40;52.60;;;;;;4999228;28;20114;-58